createdAt,value
2023-02-03T00:02:03.981Z,101229.47
2023-02-03T00:04:31.773Z,101235.28
2023-02-03T00:06:59.426Z,101243.41
2023-02-03T00:09:26.942Z,101249.25
2023-02-03T00:11:54.861Z,101237.41
2023-02-03T00:14:22.440Z,101248.00
2023-02-03T00:16:50.193Z,101252.66
2023-02-03T00:19:18.052Z,101251.44
2023-02-03T00:21:46.023Z,101252.53
2023-02-03T00:24:13.668Z,101264.06
2023-02-03T00:26:42.983Z,101271.34
2023-02-03T00:29:10.886Z,101278.59
2023-02-03T00:31:38.949Z,101277.25
2023-02-03T00:34:07.193Z,101280.94
2023-02-03T00:36:35.970Z,101282.88
2023-02-03T00:39:03.630Z,101285.97
2023-02-03T00:41:31.799Z,101292.34
2023-02-03T00:43:59.414Z,101289.25
2023-02-03T00:46:27.895Z,101291.50
2023-02-03T00:48:55.651Z,101294.50
2023-02-03T00:51:23.148Z,101298.78
2023-02-03T00:53:50.620Z,101287.56
2023-02-03T00:56:18.433Z,101291.03
2023-02-03T00:58:45.974Z,101299.69
2023-02-03T01:01:13.530Z,101291.16
2023-02-03T01:03:41.476Z,101297.09
2023-02-03T01:06:16.182Z,101300.53
2023-02-03T01:08:44.616Z,101300.53
2023-02-03T01:11:15.144Z,101296.34
2023-02-03T01:13:43.138Z,101297.91
2023-02-03T01:16:12.214Z,101301.09
2023-02-03T01:18:40.555Z,101296.50
2023-02-03T01:21:11.149Z,101300.03
2023-02-03T01:23:39.058Z,101295.91
2023-02-03T01:26:10.310Z,101298.53
2023-02-03T01:28:38.669Z,101301.81
2023-02-03T01:31:10.367Z,101295.78
2023-02-03T01:33:41.026Z,101292.34
2023-02-03T01:36:10.044Z,101290.84
2023-02-03T01:38:38.151Z,101283.19
2023-02-03T01:41:08.111Z,101295.78
2023-02-03T01:43:42.242Z,101298.19
2023-02-03T01:46:36.097Z,101279.94
2023-02-03T01:49:09.705Z,101295.06
2023-02-03T01:51:39.858Z,101313.22
2023-02-03T01:54:12.403Z,101309.72
2023-02-03T01:56:44.656Z,101312.25
2023-02-03T01:59:17.622Z,101306.31
2023-02-03T02:01:46.080Z,101313.00
2023-02-03T02:04:14.265Z,101322.00
2023-02-03T02:06:42.195Z,101328.13
2023-02-03T02:09:11.805Z,101333.62
2023-02-03T02:11:41.921Z,101333.44
2023-02-03T02:14:10.205Z,101326.38
2023-02-03T02:16:50.379Z,101329.66
2023-02-03T02:19:51.161Z,101319.50
2023-02-03T02:22:28.147Z,101330.84
2023-02-03T02:25:32.730Z,101325.66
2023-02-03T02:28:17.089Z,101329.25
2023-02-03T02:30:50.827Z,101338.06
2023-02-03T02:33:34.486Z,101335.47
2023-02-03T02:36:31.890Z,101341.44
2023-02-03T02:39:15.497Z,101340.78
2023-02-03T02:41:49.191Z,101349.34
2023-02-03T02:44:33.389Z,101359.59
2023-02-03T02:47:10.742Z,101347.62
2023-02-03T02:49:48.261Z,101373.41
2023-02-03T02:52:18.319Z,101370.06
2023-02-03T02:54:51.504Z,101369.53
2023-02-03T02:57:21.608Z,101375.84
2023-02-03T02:59:49.707Z,101377.66
2023-02-03T03:02:17.560Z,101383.91
2023-02-03T03:04:48.477Z,101382.22
2023-02-03T03:07:22.379Z,101383.91
2023-02-03T03:10:00.705Z,101376.59
2023-02-03T03:12:35.669Z,101386.81
2023-02-03T03:15:17.230Z,101380.56
2023-02-03T03:17:51.904Z,101389.84
2023-02-03T03:20:24.634Z,101388.84
2023-02-03T03:23:06.602Z,101390.72
2023-02-03T03:25:41.029Z,101393.56
2023-02-03T03:28:15.376Z,101398.91
2023-02-03T03:30:44.007Z,101392.87
2023-02-03T03:33:11.783Z,101399.22
2023-02-03T03:36:03.368Z,101403.63
2023-02-03T03:38:41.273Z,101401.94
2023-02-03T03:41:24.519Z,101415.78
2023-02-03T03:43:56.870Z,101417.63
2023-02-03T03:46:30.997Z,101414.72
2023-02-03T03:49:03.684Z,101414.84
2023-02-03T03:51:34.523Z,101425.47
2023-02-03T03:54:07.964Z,101417.47
2023-02-03T03:56:43.462Z,101420.13
2023-02-03T03:59:14.723Z,101421.28
2023-02-03T04:01:43.118Z,101403.25
2023-02-03T04:04:11.899Z,101398.94
2023-02-03T04:06:39.804Z,101406.13
2023-02-03T04:09:07.565Z,101404.53
2023-02-03T04:11:54.312Z,101393.41
2023-02-03T04:14:21.738Z,101390.06
2023-02-03T04:16:49.461Z,101396.13
2023-02-03T04:19:16.883Z,101402.31
2023-02-03T04:21:44.327Z,101404.25
2023-02-03T04:24:12.196Z,101410.00
2023-02-03T04:26:39.675Z,101409.44
2023-02-03T04:29:07.265Z,101406.00
2023-02-03T04:31:35.074Z,101396.88
2023-02-03T04:34:02.625Z,101417.66
2023-02-03T04:36:30.072Z,101422.88
2023-02-03T04:38:58.268Z,101428.03
2023-02-03T04:41:25.743Z,101428.66
2023-02-03T04:43:53.327Z,101427.06
2023-02-03T04:46:21.006Z,101417.56
2023-02-03T04:48:48.558Z,101412.41
2023-02-03T04:51:16.098Z,101414.34
2023-02-03T04:53:43.896Z,101409.31
2023-02-03T04:56:11.410Z,101406.75
2023-02-03T04:58:38.841Z,101412.13
2023-02-03T05:01:09.122Z,101407.88
2023-02-03T05:03:36.792Z,101387.97
2023-02-03T05:06:05.632Z,101409.25
2023-02-03T05:08:33.394Z,101414.22
2023-02-03T05:11:02.232Z,101422.75
2023-02-03T05:13:29.968Z,101422.91
2023-02-03T05:15:57.735Z,101412.75
2023-02-03T05:18:25.245Z,101418.91
2023-02-03T05:20:52.652Z,101427.50
2023-02-03T05:23:20.481Z,101435.84
2023-02-03T05:25:47.958Z,101435.06
2023-02-03T05:28:15.607Z,101445.16
2023-02-03T05:30:44.239Z,101457.47
2023-02-03T05:33:11.777Z,101454.59
2023-02-03T05:35:39.290Z,101450.22
2023-02-03T05:38:07.345Z,101468.88
2023-02-03T05:40:53.289Z,101466.09
2023-02-03T05:43:21.114Z,101461.31
2023-02-03T05:45:48.703Z,101464.16
2023-02-03T05:48:16.167Z,101465.78
2023-02-03T05:50:43.990Z,101465.41
2023-02-03T05:53:11.739Z,101462.94
2023-02-03T05:55:39.133Z,101450.03
2023-02-03T05:58:06.870Z,101455.91
2023-02-03T06:00:34.677Z,101462.75
2023-02-03T06:03:03.579Z,101457.59
2023-02-03T06:05:33.845Z,101455.94
2023-02-03T06:08:01.707Z,101464.47
2023-02-03T06:10:29.639Z,101462.66
2023-02-03T06:12:57.476Z,101464.03
2023-02-03T06:15:25.185Z,101462.31
2023-02-03T06:17:52.906Z,101469.19
2023-02-03T06:20:20.795Z,101464.72
2023-02-03T06:22:48.299Z,101471.31
2023-02-03T06:25:16.093Z,101474.50
2023-02-03T06:27:43.629Z,101473.44
2023-02-03T06:30:13.510Z,101479.31
2023-02-03T06:32:41.429Z,101479.78
2023-02-03T06:35:09.485Z,101485.56
2023-02-03T06:37:37.622Z,101488.72
2023-02-03T06:40:06.206Z,101497.28
2023-02-03T06:42:36.488Z,101490.03
2023-02-03T06:45:04.594Z,101494.22
2023-02-03T06:47:32.342Z,101494.00
2023-02-03T06:49:59.879Z,101493.00
2023-02-03T06:52:27.510Z,101491.16
2023-02-03T06:54:55.236Z,101493.00
2023-02-03T06:57:22.676Z,101494.13
2023-02-03T06:59:50.204Z,101501.03
2023-02-03T07:02:18.424Z,101500.88
2023-02-03T07:04:45.888Z,101503.53
2023-02-03T07:07:13.722Z,101504.78
2023-02-03T07:09:41.744Z,101496.75
2023-02-03T07:12:09.736Z,101510.59
2023-02-03T07:14:39.340Z,101519.31
2023-02-03T07:17:07.110Z,101513.22
2023-02-03T07:19:34.534Z,101507.81
2023-02-03T07:22:02.482Z,101523.94
2023-02-03T07:24:30.412Z,101525.59
2023-02-03T07:26:57.896Z,101522.88
2023-02-03T07:29:25.370Z,101531.69
2023-02-03T07:31:53.216Z,101529.94
2023-02-03T07:34:21.590Z,101529.00
2023-02-03T07:36:49.080Z,101528.78
2023-02-03T07:39:16.759Z,101523.72
2023-02-03T07:41:44.538Z,101513.91
2023-02-03T07:44:12.093Z,101521.69
2023-02-03T07:46:44.838Z,101516.25
2023-02-03T07:49:12.936Z,101512.47
2023-02-03T07:51:41.197Z,101515.03
2023-02-03T07:54:08.617Z,101505.03
2023-02-03T07:56:36.040Z,101510.59
2023-02-03T07:59:03.891Z,101507.13
2023-02-03T08:01:34.183Z,101507.25
2023-02-03T08:04:05.507Z,101515.50
2023-02-03T08:06:33.358Z,101514.94
2023-02-03T08:09:00.921Z,101509.84
2023-02-03T08:11:28.690Z,101508.63
2023-02-03T08:13:56.243Z,101516.44
2023-02-03T08:16:23.836Z,101507.59
2023-02-03T08:18:51.713Z,101507.16
2023-02-03T08:21:19.230Z,101504.25
2023-02-03T08:23:46.702Z,101505.75
2023-02-03T08:26:14.486Z,101506.75
2023-02-03T08:28:42.066Z,101501.16
2023-02-03T08:31:13.031Z,101508.31
2023-02-03T08:33:46.737Z,101519.88
2023-02-03T08:36:14.172Z,101521.84
2023-02-03T08:38:42.039Z,101520.47
2023-02-03T08:41:12.279Z,101522.22
2023-02-03T08:43:39.859Z,101525.06
2023-02-03T08:46:09.454Z,101520.66
2023-02-03T08:48:37.158Z,101520.97
2023-02-03T08:51:15.667Z,101523.09
2023-02-03T08:53:43.555Z,101519.22
2023-02-03T08:56:12.294Z,101533.38
2023-02-03T08:58:39.828Z,101544.56
2023-02-03T09:01:18.396Z,101548.69
2023-02-03T09:03:46.619Z,101544.63
2023-02-03T09:06:16.647Z,101544.72
2023-02-03T09:08:46.099Z,101539.50
2023-02-03T09:11:16.108Z,101552.03
2023-02-03T09:13:46.866Z,101545.53
2023-02-03T09:16:22.438Z,101528.47
2023-02-03T09:18:51.731Z,101551.63
2023-02-03T09:21:32.162Z,101548.37
2023-02-03T09:24:04.245Z,101541.87
2023-02-03T09:26:32.025Z,101550.41
2023-02-03T09:28:59.528Z,101555.53
2023-02-03T09:31:27.064Z,101548.03
2023-02-03T09:33:54.982Z,101548.84
2023-02-03T09:36:22.435Z,101541.53
2023-02-03T09:38:49.879Z,101536.34
2023-02-03T09:41:35.674Z,101542.44
2023-02-03T09:44:27.533Z,101537.31
2023-02-03T09:47:02.717Z,101539.50
2023-02-03T09:49:53.920Z,101540.34
2023-02-03T09:52:25.080Z,101541.75
2023-02-03T09:55:14.327Z,101535.66
2023-02-03T09:57:56.908Z,101529.03
2023-02-03T10:00:30.435Z,101510.81
2023-02-03T10:03:07.509Z,101503.72
2023-02-03T10:05:53.596Z,101488.94
2023-02-03T10:08:55.417Z,101484.81
2023-02-03T10:11:46.161Z,101476.00
2023-02-03T10:14:23.595Z,101463.69
2023-02-03T10:16:59.918Z,101455.62
2023-02-03T10:19:42.083Z,101449.91
2023-02-03T10:22:18.570Z,101444.72
2023-02-03T10:24:53.826Z,101430.47
2023-02-03T10:27:23.901Z,101429.72
2023-02-03T10:30:18.272Z,101429.56
2023-02-03T10:32:45.849Z,101422.53
2023-02-03T10:35:14.293Z,101420.19
2023-02-03T10:37:49.902Z,101413.22
2023-02-03T10:40:18.207Z,101407.91
2023-02-03T10:43:06.782Z,101410.28
2023-02-03T10:45:38.410Z,101401.50
2023-02-03T10:48:13.969Z,101387.69
2023-02-03T10:50:49.038Z,101379.72
2023-02-03T10:53:36.550Z,101370.62
2023-02-03T10:56:14.429Z,101360.06
2023-02-03T10:58:56.645Z,101344.59
2023-02-03T11:01:48.671Z,101345.91
2023-02-03T11:04:31.765Z,101342.06
2023-02-03T11:07:06.238Z,101347.53
2023-02-03T11:09:39.160Z,101342.22
2023-02-03T11:12:12.129Z,101338.41
2023-02-03T11:14:45.640Z,101327.56
2023-02-03T11:17:22.896Z,101336.84
2023-02-03T11:19:52.356Z,101343.13
2023-02-03T11:22:32.751Z,101341.72
2023-02-03T11:25:03.557Z,101325.03
2023-02-03T11:27:33.228Z,101323.19
2023-02-03T11:30:11.141Z,101319.25
2023-02-03T11:32:41.754Z,101316.72
2023-02-03T11:35:27.062Z,101300.44
2023-02-03T11:37:58.345Z,101304.59
2023-02-03T11:40:29.368Z,101304.25
2023-02-03T11:42:57.511Z,101303.69
2023-02-03T11:45:24.869Z,101307.19
2023-02-03T11:47:58.216Z,101300.97
2023-02-03T11:50:50.954Z,101306.69
2023-02-03T11:53:31.041Z,101312.72
2023-02-03T11:56:04.728Z,101323.66
2023-02-03T11:58:41.407Z,101325.50
2023-02-03T12:01:20.965Z,101326.84
2023-02-03T12:04:00.750Z,101315.09
2023-02-03T12:06:56.474Z,101305.97
2023-02-03T12:09:40.368Z,101300.22
2023-02-03T12:12:33.888Z,101287.84
2023-02-03T12:15:25.054Z,101293.63
2023-02-03T12:18:16.640Z,101283.38
2023-02-03T12:20:47.148Z,101274.81
2023-02-03T12:23:36.062Z,101274.75
2023-02-03T12:26:33.134Z,101270.78
2023-02-03T12:29:13.300Z,101265.50
2023-02-03T12:32:07.507Z,101248.41
2023-02-03T12:34:47.463Z,101223.44
2023-02-03T12:37:21.786Z,101234.38
2023-02-03T12:40:03.777Z,101211.66
2023-02-03T12:42:40.762Z,101212.91
2023-02-03T12:45:08.553Z,101208.97
2023-02-03T12:47:40.717Z,101206.06
2023-02-03T12:50:22.883Z,101201.12
2023-02-03T12:53:00.741Z,101182.94
2023-02-03T12:55:33.511Z,101165.63
2023-02-03T12:58:26.642Z,101176.78
2023-02-03T13:01:12.964Z,101171.00
2023-02-03T13:04:06.753Z,101163.38
2023-02-03T13:06:46.476Z,101154.97
2023-02-03T13:09:39.542Z,101145.59
2023-02-03T13:12:31.616Z,101139.69
2023-02-03T13:15:25.108Z,101128.69
2023-02-03T13:18:01.712Z,101120.66
2023-02-03T13:20:35.585Z,101123.06
2023-02-03T13:23:11.158Z,101115.09
2023-02-03T13:25:47.178Z,101109.38
2023-02-03T13:28:45.845Z,101101.06
2023-02-03T13:31:32.412Z,101103.81
2023-02-03T13:34:18.852Z,101087.69
2023-02-03T13:37:05.235Z,101077.31
2023-02-03T13:39:51.475Z,101061.84
2023-02-03T13:42:31.762Z,101059.44
2023-02-03T13:45:25.360Z,101055.72
2023-02-03T13:47:57.411Z,101041.66
2023-02-03T13:50:31.043Z,101038.53
2023-02-03T13:53:19.511Z,101031.56
2023-02-03T13:56:07.979Z,101025.50
2023-02-03T13:58:39.438Z,101021.31
2023-02-03T14:01:30.132Z,101002.44
2023-02-03T14:03:58.219Z,101009.50
2023-02-03T14:06:37.835Z,101011.19
2023-02-03T14:09:30.521Z,101004.75
2023-02-03T14:12:16.446Z,101010.53
2023-02-03T14:14:58.063Z,100989.75
2023-02-03T14:17:34.331Z,100985.06
2023-02-03T14:20:28.171Z,100982.00
2023-02-03T14:23:07.299Z,100974.28
2023-02-03T14:25:40.384Z,100970.66
2023-02-03T14:28:12.263Z,100957.69
2023-02-03T14:31:01.819Z,100949.63
2023-02-03T14:34:12.982Z,100943.75
2023-02-03T14:36:46.305Z,100939.47
2023-02-03T14:39:22.612Z,100942.63
2023-02-03T14:42:01.912Z,100925.19
2023-02-03T14:44:44.303Z,100911.06
2023-02-03T14:47:22.155Z,100909.38
2023-02-03T14:49:55.382Z,100912.66
2023-02-03T14:52:28.688Z,100906.22
2023-02-03T14:55:01.970Z,100899.25
2023-02-03T14:57:39.753Z,100893.94
2023-02-03T15:00:31.411Z,100885.47
2023-02-03T15:03:10.967Z,100884.72
2023-02-03T15:05:44.470Z,100871.50
2023-02-03T15:08:44.156Z,100875.59
2023-02-03T15:11:32.855Z,100877.81
2023-02-03T15:14:25.892Z,100872.97
2023-02-03T15:17:13.008Z,100855.22
2023-02-03T15:19:42.755Z,100853.41
2023-02-03T15:22:20.574Z,100844.00
2023-02-03T15:24:50.985Z,100842.38
2023-02-03T15:27:36.383Z,100847.37
2023-02-03T15:30:19.554Z,100862.75
2023-02-03T15:33:02.897Z,100858.81
2023-02-03T15:35:34.041Z,100851.38
2023-02-03T15:38:06.181Z,100851.06
2023-02-03T15:40:41.869Z,100840.91
2023-02-03T15:43:38.094Z,100800.16
2023-02-03T15:46:19.256Z,100819.13
2023-02-03T15:48:55.287Z,100833.56
2023-02-03T15:51:47.358Z,100830.09
2023-02-03T15:54:19.142Z,100835.53
2023-02-03T15:56:56.972Z,100831.44
2023-02-03T15:59:35.542Z,100827.31
2023-02-03T16:02:40.101Z,100816.50
2023-02-03T16:05:28.423Z,100803.91
2023-02-03T16:07:56.287Z,100805.12
2023-02-03T16:10:29.749Z,100788.72
2023-02-03T16:13:20.053Z,100787.03
2023-02-03T16:16:37.107Z,100796.41
2023-02-03T16:19:14.186Z,100789.53
2023-02-03T16:21:47.987Z,100781.44
2023-02-03T16:24:33.551Z,100768.44
2023-02-03T16:27:19.845Z,100766.37
2023-02-03T16:30:06.457Z,100760.06
2023-02-03T16:32:52.950Z,100749.44
2023-02-03T16:35:39.547Z,100755.41
2023-02-03T16:38:32.575Z,100750.94
2023-02-03T16:41:18.948Z,100752.63
2023-02-03T16:44:05.477Z,100749.44
2023-02-03T16:46:51.454Z,100752.63
2023-02-03T16:49:38.111Z,100745.44
2023-02-03T16:52:06.497Z,100735.00
2023-02-03T16:54:34.247Z,100725.37
2023-02-03T16:57:01.725Z,100720.41
2023-02-03T16:59:29.175Z,100714.47
2023-02-03T17:01:57.221Z,100710.00
2023-02-03T17:04:24.691Z,100704.72
2023-02-03T17:06:52.226Z,100688.44
2023-02-03T17:09:25.079Z,100687.13
2023-02-03T17:11:53.034Z,100692.34
2023-02-03T17:14:21.909Z,100692.03
2023-02-03T17:16:49.460Z,100687.50
2023-02-03T17:19:17.147Z,100694.47
2023-02-03T17:21:45.389Z,100691.66
2023-02-03T17:24:12.963Z,100688.94
2023-02-03T17:26:40.690Z,100683.56
2023-02-03T17:29:10.422Z,100684.41
2023-02-03T17:53:38.824Z,100612.63
2023-02-03T17:56:12.005Z,100610.13
2023-02-03T17:58:40.427Z,100606.75
2023-02-03T18:01:19.495Z,100610.41
2023-02-03T18:03:49.573Z,100599.78
2023-02-03T18:06:19.906Z,100604.28
2023-02-03T18:08:50.096Z,100593.84
2023-02-03T18:11:19.272Z,100593.19
2023-02-03T18:13:48.962Z,100594.69
2023-02-03T18:16:26.149Z,100598.34
2023-02-03T18:18:54.662Z,100602.91
2023-02-03T18:21:25.001Z,100602.13
2023-02-03T18:23:58.465Z,100592.66
2023-02-03T18:26:28.885Z,100599.34
2023-02-03T18:28:56.722Z,100594.25
2023-02-03T18:31:25.386Z,100588.00
2023-02-03T18:33:53.883Z,100589.94
2023-02-03T18:36:21.555Z,100579.66
2023-02-03T18:38:49.306Z,100581.28
2023-02-03T18:41:19.917Z,100579.53
2023-02-03T18:43:51.357Z,100569.94
2023-02-03T18:46:21.263Z,100553.47
2023-02-03T18:48:49.562Z,100541.22
2023-02-03T18:51:19.532Z,100553.28
2023-02-03T18:53:49.241Z,100547.34
2023-02-03T18:56:20.676Z,100538.41
2023-02-03T18:58:49.328Z,100530.69
2023-02-03T19:01:21.771Z,100520.25
2023-02-03T19:03:50.216Z,100513.09
2023-02-03T19:06:18.538Z,100507.87
2023-02-03T19:08:46.980Z,100510.16
2023-02-03T19:11:15.286Z,100510.91
2023-02-03T19:13:43.923Z,100506.62
2023-02-03T19:16:14.264Z,100498.69
2023-02-03T19:18:43.819Z,100500.38
2023-02-03T19:21:12.785Z,100481.50
2023-02-03T19:23:42.026Z,100491.63
2023-02-03T19:26:10.592Z,100480.38
2023-02-03T19:28:39.577Z,100470.59
2023-02-03T19:31:15.396Z,100469.84
2023-02-03T19:33:43.465Z,100462.97
2023-02-03T19:36:12.074Z,100435.75
2023-02-03T19:38:39.869Z,100446.81
2023-02-03T19:41:08.791Z,100444.53
2023-02-03T19:43:36.715Z,100440.13
2023-02-03T19:46:04.612Z,100430.53
2023-02-03T19:48:32.806Z,100435.97
2023-02-03T19:51:00.830Z,100428.78
2023-02-03T19:53:28.495Z,100420.25
2023-02-03T19:55:57.256Z,100423.87
2023-02-03T19:58:25.241Z,100427.09
2023-02-03T20:00:53.532Z,100430.47
2023-02-03T20:03:22.812Z,100411.78
2023-02-03T20:05:53.040Z,100424.28
2023-02-03T20:08:21.177Z,100420.03
2023-02-03T20:10:49.457Z,100410.22
2023-02-03T20:13:17.311Z,100420.97
2023-02-03T20:15:47.520Z,100424.41
2023-02-03T20:18:15.558Z,100430.47
2023-02-03T20:20:43.242Z,100419.06
2023-02-03T20:23:11.334Z,100424.59
2023-02-03T20:25:39.144Z,100421.06
2023-02-03T20:28:07.160Z,100415.12
2023-02-03T20:30:35.656Z,100411.25
2023-02-03T20:33:04.777Z,100415.22
2023-02-03T20:35:32.467Z,100416.59
2023-02-03T20:38:00.846Z,100406.16
2023-02-03T20:40:29.795Z,100400.22
2023-02-03T20:43:00.097Z,100407.22
2023-02-03T20:45:28.388Z,100407.00
2023-02-03T20:47:56.558Z,100395.03
2023-02-03T20:50:31.554Z,100385.31
2023-02-03T20:53:02.509Z,100387.91
2023-02-03T20:55:30.226Z,100374.69
2023-02-03T20:57:57.823Z,100377.38
2023-02-03T21:00:27.866Z,100367.50
2023-02-03T21:03:14.127Z,100359.34
2023-02-03T21:05:45.393Z,100355.06
2023-02-03T21:08:19.036Z,100351.19
2023-02-03T21:10:48.302Z,100341.63
2023-02-03T21:13:27.496Z,100346.41
2023-02-03T21:16:00.007Z,100350.47
2023-02-03T21:18:32.202Z,100332.16
2023-02-03T21:21:01.332Z,100346.31
2023-02-03T21:23:38.329Z,100343.19
2023-02-03T21:26:18.912Z,100322.44
2023-02-03T21:28:48.836Z,100317.56
2023-02-03T21:31:24.095Z,100325.25
2023-02-03T21:33:54.263Z,100305.37
2023-02-03T21:36:28.239Z,100306.09
2023-02-03T21:38:59.778Z,100313.78
2023-02-03T21:41:32.894Z,100313.75
2023-02-03T21:44:00.915Z,100320.31
2023-02-03T21:46:32.633Z,100316.94
2023-02-03T21:49:04.352Z,100320.69
2023-02-03T21:51:38.667Z,100329.66
2023-02-03T21:54:30.346Z,100320.12
2023-02-03T21:56:58.949Z,100322.72
2023-02-03T21:59:30.152Z,100322.09
2023-02-03T22:01:58.647Z,100337.44
2023-02-03T22:04:28.607Z,100346.41
2023-02-03T22:06:56.153Z,100328.16
2023-02-03T22:09:25.881Z,100325.56
2023-02-03T22:11:54.094Z,100349.09
2023-02-03T22:14:21.554Z,100335.56
2023-02-03T22:16:49.118Z,100344.09
2023-02-03T22:19:17.667Z,100352.87
2023-02-03T22:21:47.722Z,100351.69
2023-02-03T22:24:15.207Z,100341.00
2023-02-03T22:26:42.987Z,100340.16
2023-02-03T22:29:10.540Z,100361.22
2023-02-03T22:31:38.124Z,100348.59
2023-02-03T22:34:05.877Z,100345.91
2023-02-03T22:36:33.364Z,100356.63
2023-02-03T22:39:00.810Z,100354.25
2023-02-03T22:41:28.544Z,100358.25
2023-02-03T22:43:56.351Z,100367.34
2023-02-03T22:46:23.814Z,100381.00
2023-02-03T22:48:51.733Z,100377.22
2023-02-03T22:51:19.122Z,100375.16
2023-02-03T22:53:46.616Z,100374.53
2023-02-03T22:56:14.379Z,100378.31
2023-02-03T22:58:42.149Z,100352.87
2023-02-03T23:01:09.697Z,100379.28
2023-02-03T23:03:37.567Z,100388.66
2023-02-03T23:06:05.154Z,100374.34
2023-02-03T23:08:33.104Z,100379.69
2023-02-03T23:11:00.862Z,100383.44
2023-02-03T23:13:28.838Z,100380.41
2023-02-03T23:15:56.340Z,100382.50
2023-02-03T23:18:24.203Z,100386.66
2023-02-03T23:20:51.861Z,100384.81
2023-02-03T23:23:19.296Z,100392.19
2023-02-03T23:25:47.092Z,100394.78
2023-02-03T23:28:14.615Z,100394.28
2023-02-03T23:30:42.522Z,100394.88
2023-02-03T23:33:10.247Z,100396.69
2023-02-03T23:35:46.739Z,100393.72
2023-02-03T23:38:15.778Z,100394.78
2023-02-03T23:40:43.673Z,100378.09
2023-02-03T23:43:11.086Z,100394.56
2023-02-03T23:45:38.979Z,100389.75
2023-02-03T23:48:06.882Z,100392.03
2023-02-03T23:50:34.334Z,100379.56
2023-02-03T23:53:02.429Z,100380.59
2023-02-03T23:55:31.356Z,100391.22
2023-02-03T23:57:58.837Z,100379.22
